Time;durP1;ratioP1;P1;durP2;ratioP2;P2;SDS_P1;SDS_P2;PMS_P1;PMS_P2;Temp;Humidity;BMP_temperature;BMP_pressure;BME280_temperature;BME280_humidity;BME280_pressure;Samples;Min_cycle;Max_cycle;Signal;HPM_P1;HPM_P2
2023/05/17 00:04:06;;;;;;;4.93;1.50;;;14.70;95.10;;;;;;10433158;28;20381;-67
2023/05/17 00:09:07;;;;;;;3.72;1.60;;;14.70;95.10;;;;;;10434522;28;20651;-67
2023/05/17 00:14:07;;;;;;;4.22;1.58;;;14.70;95.10;;;;;;10433224;28;20671;-67
2023/05/17 00:19:08;;;;;;;4.30;1.80;;;14.70;95.10;;;;;;10431703;28;20024;-67
2023/05/17 00:24:08;;;;;;;6.95;1.98;;;14.70;95.10;;;;;;10431059;28;20021;-67
2023/05/17 00:29:09;;;;;;;4.05;1.70;;;14.70;95.10;;;;;;10433108;28;20036;-67
2023/05/17 00:34:10;;;;;;;4.85;1.90;;;14.70;95.10;;;;;;10433344;28;20017;-67
2023/05/17 00:39:10;;;;;;;6.18;1.92;;;14.60;95.10;;;;;;10429939;28;20021;-67
2023/05/17 00:44:11;;;;;;;4.18;1.90;;;14.60;95.10;;;;;;10435473;28;20496;-67
2023/05/17 00:49:12;;;;;;;6.15;1.88;;;14.60;95.10;;;;;;10431518;28;20583;-67
2023/05/17 00:54:14;;;;;;;6.00;1.92;;;14.60;95.10;;;;;;10437438;28;20035;-67
2023/05/17 00:59:16;;;;;;;3.90;1.60;;;14.50;95.10;;;;;;10429940;28;20107;-67
2023/05/17 01:04:17;;;;;;;2.42;1.50;;;14.50;95.10;;;;;;10432900;28;20102;-67
2023/05/17 01:09:18;;;;;;;3.95;1.50;;;14.50;95.10;;;;;;10437440;28;20025;-67
2023/05/17 01:14:46;;;;;;;5.32;1.50;;;14.50;95.10;;;;;;10437010;28;20021;-66
2023/05/17 01:19:55;;;;;;;6.43;2.08;;;14.50;95.00;;;;;;10436330;28;20021;-67
2023/05/17 01:25:16;;;;;;;3.78;1.50;;;14.40;95.00;;;;;;10433028;28;20496;-67
2023/05/17 01:30:19;;;;;;;5.35;1.73;;;14.40;95.00;;;;;;10430927;28;20040;-67
2023/05/17 01:35:20;;;;;;;3.50;1.60;;;14.40;95.10;;;;;;10435598;28;20036;-67
2023/05/17 01:40:21;;;;;;;6.10;1.83;;;13.90;94.90;;;;;;10436010;28;20029;-66
2023/05/17 01:45:32;;;;;;;4.93;1.65;;;14.40;95.10;;;;;;10435057;28;20021;-67
2023/05/17 01:50:35;;;;;;;5.50;1.83;;;14.40;95.10;;;;;;10426243;28;20295;-67
2023/05/17 01:55:54;;;;;;;6.38;1.40;;;14.30;95.00;;;;;;10422309;28;20094;-67
2023/05/17 02:00:56;;;;;;;4.85;1.63;;;14.30;95.00;;;;;;10407940;28;20436;-67
2023/05/17 02:05:57;;;;;;;6.07;1.73;;;14.30;95.00;;;;;;10412848;28;20155;-67
2023/05/17 02:10:58;;;;;;;4.88;1.48;;;14.30;95.00;;;;;;10409643;28;20470;-67
2023/05/17 02:16:02;;;;;;;4.10;1.27;;;14.30;95.10;;;;;;10412392;28;20014;-67
2023/05/17 02:21:03;;;;;;;8.45;2.10;;;14.20;95.30;;;;;;10411920;28;20459;-67
2023/05/17 02:26:04;;;;;;;8.23;1.73;;;14.20;95.00;;;;;;10415314;28;20032;-67
2023/05/17 02:31:07;;;;;;;6.35;1.65;;;14.20;95.00;;;;;;10416690;28;20113;-67
2023/05/17 02:36:08;;;;;;;6.20;1.65;;;14.10;95.00;;;;;;10418337;28;20021;-67
2023/05/17 02:41:08;;;;;;;5.38;1.85;;;14.10;95.00;;;;;;10417105;28;20014;-67
2023/05/17 02:46:09;;;;;;;3.83;1.30;;;14.10;95.00;;;;;;10411341;28;20033;-67
2023/05/17 02:51:09;;;;;;;5.25;1.60;;;14.10;95.00;;;;;;10418134;28;20586;-67
2023/05/17 02:56:10;;;;;;;6.03;1.50;;;14.00;94.90;;;;;;10410911;28;20029;-67
2023/05/17 03:01:11;;;;;;;6.13;1.60;;;14.00;94.90;;;;;;10414533;28;20061;-67
2023/05/17 03:06:12;;;;;;;5.57;1.73;;;14.00;94.90;;;;;;10417023;28;20018;-67
2023/05/17 03:11:12;;;;;;;7.15;1.33;;;14.00;94.90;;;;;;10416305;28;20421;-67
2023/05/17 03:16:13;;;;;;;5.10;1.50;;;14.00;94.90;;;;;;10416367;28;20022;-67
2023/05/17 03:21:13;;;;;;;6.55;1.70;;;14.00;94.80;;;;;;10414202;28;20493;-67
2023/05/17 03:26:22;;;;;;;6.43;1.90;;;13.90;94.80;;;;;;10411655;28;20392;-67
2023/05/17 03:31:24;;;;;;;6.80;1.75;;;13.90;94.80;;;;;;10417873;28;20021;-67
2023/05/17 03:36:25;;;;;;;4.85;1.60;;;13.90;94.80;;;;;;10415724;28;20075;-67
2023/05/17 03:41:25;;;;;;;4.65;1.20;;;13.90;94.80;;;;;;10413680;28;20021;-67
2023/05/17 03:46:26;;;;;;;7.13;1.63;;;13.90;94.80;;;;;;10413365;28;20108;-67
2023/05/17 03:51:26;;;;;;;4.60;1.60;;;13.80;94.80;;;;;;10416346;28;20386;-67
2023/05/17 03:56:27;;;;;;;6.05;1.55;;;13.80;94.80;;;;;;10415005;28;20029;-67
2023/05/17 04:01:28;;;;;;;5.13;1.38;;;13.80;94.80;;;;;;10413974;28;20508;-67
2023/05/17 04:06:28;;;;;;;5.05;1.40;;;13.80;94.80;;;;;;10414828;28;20028;-67
2023/05/17 04:11:29;;;;;;;6.63;2.03;;;13.80;94.80;;;;;;10420992;28;20108;-67
2023/05/17 04:16:30;;;;;;;3.35;1.17;;;13.80;94.80;;;;;;10423489;28;20021;-67
2023/05/17 04:21:31;;;;;;;7.07;1.40;;;13.70;94.70;;;;;;10422112;28;20396;-67
2023/05/17 04:26:32;;;;;;;10.05;2.28;;;13.70;94.70;;;;;;10417949;28;20038;-67
2023/05/17 04:31:33;;;;;;;4.13;1.10;;;13.70;94.70;;;;;;10421026;28;20110;-67
2023/05/17 04:36:33;;;;;;;4.03;1.20;;;13.70;94.70;;;;;;10420507;28;20372;-67
2023/05/17 04:41:34;;;;;;;4.82;2.05;;;13.70;94.70;;;;;;10412891;28;20044;-67
2023/05/17 04:46:35;;;;;;;3.25;0.98;;;13.70;94.70;;;;;;10423182;28;20111;-67
2023/05/17 04:51:35;;;;;;;7.13;1.67;;;13.70;94.70;;;;;;10416308;28;20053;-67
2023/05/17 04:56:36;;;;;;;3.45;1.02;;;13.70;94.60;;;;;;10422235;28;20021;-68
2023/05/17 05:01:37;;;;;;;5.38;1.33;;;13.60;94.60;;;;;;10424389;28;20033;-69
2023/05/17 05:06:37;;;;;;;3.67;1.10;;;13.70;94.60;;;;;;10424403;28;20029;-69
2023/05/17 05:11:38;;;;;;;5.85;1.50;;;13.70;94.60;;;;;;10417392;28;20219;-68
2023/05/17 05:16:38;;;;;;;3.65;1.10;;;13.70;94.50;;;;;;10423291;28;20034;-69
2023/05/17 05:21:39;;;;;;;3.97;1.25;;;13.70;94.50;;;;;;10423950;28;20112;-69
2023/05/17 05:26:40;;;;;;;2.38;0.90;;;13.70;94.50;;;;;;10417746;28;20505;-69
2023/05/17 05:31:40;;;;;;;7.22;1.25;;;13.70;94.40;;;;;;10424520;28;20484;-68
2023/05/17 05:36:42;;;;;;;6.00;1.67;;;13.70;94.40;;;;;;10410916;28;20700;-69
2023/05/17 05:41:43;;;;;;;3.60;1.33;;;13.70;94.40;;;;;;10416843;28;20025;-68
2023/05/17 05:46:44;;;;;;;4.80;1.20;;;13.70;94.40;;;;;;10415054;28;20029;-68
2023/05/17 05:51:44;;;;;;;7.55;1.10;;;13.70;94.30;;;;;;10417761;28;20413;-68
2023/05/17 05:56:45;;;;;;;4.00;1.55;;;13.70;94.30;;;;;;10419589;28;20030;-68
2023/05/17 06:01:46;;;;;;;5.50;1.15;;;13.70;94.30;;;;;;10405585;28;20120;-68
2023/05/17 06:06:47;;;;;;;4.07;1.08;;;13.70;94.30;;;;;;10407545;28;20026;-68
2023/05/17 06:11:52;;;;;;;2.28;0.90;;;13.70;94.20;;;;;;10409334;28;20029;-68
2023/05/17 06:16:52;;;;;;;3.42;0.90;;;13.80;94.20;;;;;;10416263;28;20035;-67
2023/05/17 06:21:53;;;;;;;5.55;1.02;;;13.80;94.20;;;;;;10413966;28;20033;-68
2023/05/17 06:26:53;;;;;;;3.13;0.90;;;13.80;94.10;;;;;;10414492;28;20079;-69
2023/05/17 06:31:55;;;;;;;6.50;1.10;;;13.80;94.10;;;;;;10430545;28;20041;-67
2023/05/17 06:36:56;;;;;;;1.77;0.70;;;13.80;94.10;;;;;;10416420;28;20036;-68
2023/05/17 06:41:56;;;;;;;6.38;1.17;;;13.80;94.00;;;;;;10401074;28;20060;-68
2023/05/17 06:46:59;;;;;;;2.15;0.85;;;13.90;94.00;;;;;;10415992;28;20132;-68
2023/05/17 06:52:02;;;;;;;2.65;1.02;;;13.90;94.00;;;;;;10411623;28;20500;-68
2023/05/17 06:57:03;;;;;;;5.82;1.73;;;13.90;93.90;;;;;;10416730;28;20481;-68
2023/05/17 07:02:04;;;;;;;4.32;1.30;;;13.90;93.90;;;;;;10415229;28;20026;-68
2023/05/17 07:07:04;;;;;;;5.45;1.45;;;14.00;93.90;;;;;;10410603;28;20028;-68
2023/05/17 07:12:05;;;;;;;3.28;1.10;;;14.10;93.90;;;;;;10409299;28;20033;-68
2023/05/17 07:17:06;;;;;;;4.00;0.98;;;14.10;93.90;;;;;;10413837;28;20017;-68
2023/05/17 07:22:06;;;;;;;3.90;1.23;;;14.10;93.90;;;;;;10415325;28;20029;-67
2023/05/17 07:27:07;;;;;;;2.15;0.93;;;14.10;93.90;;;;;;10415160;28;20037;-68
2023/05/17 07:32:10;;;;;;;3.33;1.08;;;14.10;93.90;;;;;;10415250;28;20072;-68
2023/05/17 07:37:11;;;;;;;3.95;1.02;;;14.10;93.80;;;;;;10412346;28;20168;-68
2023/05/17 07:42:12;;;;;;;3.97;1.10;;;14.20;93.80;;;;;;10409393;28;20033;-68
2023/05/17 07:47:12;;;;;;;2.38;1.27;;;14.20;94.10;;;;;;10410771;28;20436;-68
2023/05/17 07:52:15;;;;;;;4.20;0.70;;;14.20;93.80;;;;;;10421243;28;20161;-68
2023/05/17 07:57:16;;;;;;;3.08;1.00;;;14.30;93.80;;;;;;10417662;28;20021;-68
2023/05/17 08:02:17;;;;;;;4.30;1.00;;;14.30;93.80;;;;;;10426198;28;20094;-68
2023/05/17 08:07:17;;;;;;;3.58;1.00;;;14.30;93.80;;;;;;10426047;28;20075;-68
2023/05/17 08:12:18;;;;;;;3.92;0.95;;;14.30;93.80;;;;;;10424993;28;20496;-68
2023/05/17 08:17:19;;;;;;;8.95;1.20;;;14.40;93.80;;;;;;10421983;28;20025;-72
2023/05/17 08:22:19;;;;;;;5.90;1.50;;;14.30;93.10;;;;;;10421113;28;20022;-72
2023/05/17 08:27:20;;;;;;;8.25;1.60;;;13.80;91.70;;;;;;10419100;28;20040;-67
2023/05/17 08:32:22;;;;;;;5.93;1.98;;;13.30;91.40;;;;;;10426789;28;20017;-71
2023/05/17 08:37:23;;;;;;;6.82;1.88;;;13.10;90.50;;;;;;10424571;28;20032;-72
2023/05/17 08:42:26;;;;;;;6.72;1.40;;;12.80;89.40;;;;;;10412577;28;20515;-76
2023/05/17 08:47:30;;;;;;;6.85;1.23;;;12.70;87.40;;;;;;10423416;28;20464;-74
2023/05/17 08:52:32;;;;;;;4.22;0.80;;;12.80;87.10;;;;;;10419802;28;20025;-74
2023/05/17 08:57:37;;;;;;;6.93;1.02;;;12.60;83.60;;;;;;10425677;28;20052;-71
2023/05/17 09:02:39;;;;;;;5.25;0.98;;;12.40;84.50;;;;;;10421191;28;20037;-74
2023/05/17 09:07:41;;;;;;;5.68;0.93;;;12.30;84.00;;;;;;10418017;28;20044;-72
2023/05/17 09:12:42;;;;;;;6.63;1.88;;;12.20;83.20;;;;;;10420234;28;20486;-73
2023/05/17 09:17:53;;;;;;;5.00;1.33;;;12.40;83.70;;;;;;10426754;28;20021;-78
2023/05/17 09:22:54;;;;;;;5.00;1.30;;;12.70;82.60;;;;;;10420370;28;20032;-73
2023/05/17 09:27:59;;;;;;;9.40;1.55;;;12.70;82.80;;;;;;10426435;28;20118;-70
2023/05/17 09:33:06;;;;;;;7.20;1.67;;;12.60;81.90;;;;;;10423640;28;20560;-71
2023/05/17 09:38:10;;;;;;;8.63;1.60;;;12.40;78.80;;;;;;10420080;28;20017;-68
2023/05/17 09:43:11;;;;;;;7.32;2.35;;;12.10;80.40;;;;;;10414773;28;20555;-67
2023/05/17 09:48:17;;;;;;;9.45;2.22;;;12.20;80.80;;;;;;10430326;28;20028;-69
2023/05/17 09:53:28;;;;;;;5.22;1.27;;;12.40;78.80;;;;;;10430035;28;20608;-69
2023/05/17 09:58:31;;;;;;;6.10;1.23;;;12.40;77.80;;;;;;10425574;28;20385;-68
2023/05/17 10:03:34;;;;;;;6.78;1.35;;;12.10;78.90;;;;;;10426815;28;20067;-69
2023/05/17 10:08:40;;;;;;;10.35;1.70;;;12.20;80.60;;;;;;10425933;28;20370;-67
2023/05/17 10:13:48;;;;;;;8.55;1.38;;;12.50;80.30;;;;;;10420930;28;20029;-69
2023/05/17 10:18:49;;;;;;;9.88;1.50;;;12.90;78.70;;;;;;10417057;28;20034;-68
2023/05/17 10:23:51;;;;;;;7.82;1.60;;;12.90;79.10;;;;;;10418257;28;20178;-69
2023/05/17 10:28:59;;;;;;;6.70;1.45;;;12.90;78.50;;;;;;10418382;28;20256;-69
2023/05/17 10:34:01;;;;;;;7.53;1.67;;;12.80;78.60;;;;;;10422173;28;20041;-69
2023/05/17 10:39:06;;;;;;;7.88;1.52;;;12.90;79.60;;;;;;10416799;28;20013;-68
2023/05/17 10:44:08;;;;;;;8.40;1.30;;;13.00;79.30;;;;;;10415331;28;20022;-70
2023/05/17 10:49:10;;;;;;;7.03;1.38;;;12.90;80.10;;;;;;10419388;28;20171;-69
2023/05/17 10:54:12;;;;;;;6.88;1.90;;;12.90;80.60;;;;;;10423022;28;20033;-70
2023/05/17 10:59:25;;;;;;;7.25;1.67;;;13.00;80.60;;;;;;10421791;28;20430;-70
2023/05/17 11:04:43;;;;;;;6.90;1.73;;;13.00;81.10;;;;;;10421205;28;20117;-69
2023/05/17 11:09:45;;;;;;;6.83;1.37;;;13.10;80.80;;;;;;10421666;28;20032;-69
2023/05/17 11:14:52;;;;;;;7.70;1.50;;;13.30;79.30;;;;;;10418136;28;20030;-71
2023/05/17 11:19:56;;;;;;;5.75;1.85;;;13.50;79.20;;;;;;10415759;28;20025;-72
2023/05/17 11:24:57;;;;;;;6.72;1.35;;;13.30;79.70;;;;;;10418075;28;20025;-69
2023/05/17 11:30:06;;;;;;;3.92;1.10;;;13.20;79.70;;;;;;10422294;28;20035;-73
2023/05/17 11:35:11;;;;;;;6.65;1.77;;;13.20;80.10;;;;;;10423835;28;20029;-71
2023/05/17 11:40:13;;;;;;;6.25;1.67;;;13.20;78.90;;;;;;10429945;28;20025;-71
2023/05/17 11:45:14;;;;;;;4.90;1.15;;;13.40;78.30;;;;;;10422178;28;20628;-71
2023/05/17 11:50:16;;;;;;;7.75;1.38;;;13.50;77.90;;;;;;10419090;28;20063;-71
2023/05/17 11:55:17;;;;;;;5.68;1.25;;;13.60;78.10;;;;;;10409612;28;20516;-69
2023/05/17 12:00:26;;;;;;;4.88;1.27;;;13.70;77.90;;;;;;10424345;28;20031;-69
2023/05/17 12:05:26;;;;;;;4.78;1.40;;;13.70;74.40;;;;;;10421824;28;20075;-69
2023/05/17 12:10:28;;;;;;;4.63;2.08;;;13.80;76.10;;;;;;10420329;28;20117;-67
2023/05/17 12:15:30;;;;;;;6.43;1.65;;;13.80;74.60;;;;;;10422550;28;20113;-66
2023/05/17 12:20:31;;;;;;;7.05;2.00;;;13.80;75.30;;;;;;10420663;28;20378;-68
2023/05/17 12:25:32;;;;;;;5.00;1.55;;;13.70;73.80;;;;;;10417324;28;20033;-68
2023/05/17 12:30:33;;;;;;;4.45;1.00;;;13.70;74.30;;;;;;10413888;28;20405;-69
2023/05/17 12:35:34;;;;;;;6.32;1.48;;;13.70;73.20;;;;;;10423412;28;20026;-68
2023/05/17 12:40:34;;;;;;;6.97;1.30;;;14.10;74.30;;;;;;10425029;28;20496;-69
2023/05/17 12:45:35;;;;;;;6.45;1.50;;;14.20;72.10;;;;;;10415273;28;20098;-71
2023/05/17 12:50:36;;;;;;;8.25;1.58;;;14.50;72.70;;;;;;10419184;28;20113;-71
2023/05/17 12:55:37;;;;;;;4.55;1.33;;;14.80;71.60;;;;;;10432109;28;20021;-69
2023/05/17 13:00:38;;;;;;;5.43;1.25;;;14.30;71.20;;;;;;10422260;28;20116;-70
2023/05/17 13:05:40;;;;;;;10.43;1.50;;;14.20;72.20;;;;;;10418807;28;20513;-71
2023/05/17 13:10:40;;;;;;;3.50;1.30;;;14.50;72.00;;;;;;10425735;28;20024;-73
2023/05/17 13:15:46;;;;;;;4.03;1.60;;;14.60;70.40;;;;;;10423275;28;20026;-70
2023/05/17 13:20:46;;;;;;;6.32;1.50;;;14.70;71.20;;;;;;10426476;28;20026;-70
2023/05/17 13:25:47;;;;;;;4.63;1.10;;;14.90;70.40;;;;;;10424098;28;20096;-69
2023/05/17 13:30:50;;;;;;;8.65;1.70;;;15.00;70.60;;;;;;10432159;28;20108;-72
2023/05/17 13:35:51;;;;;;;6.22;1.88;;;14.60;72.20;;;;;;10427394;28;20033;-72
2023/05/17 13:40:52;;;;;;;5.18;1.58;;;14.70;72.00;;;;;;10417939;28;20099;-73
2023/05/17 13:45:55;;;;;;;6.95;1.63;;;14.90;71.20;;;;;;10424462;28;20056;-72
2023/05/17 13:50:57;;;;;;;6.78;1.65;;;14.80;72.10;;;;;;10417614;28;20029;-72
2023/05/17 13:55:57;;;;;;;7.57;1.83;;;15.00;71.80;;;;;;10414216;28;20017;-72
2023/05/17 14:00:58;;;;;;;11.55;1.65;;;15.30;71.70;;;;;;10414245;28;20044;-72
2023/05/17 14:05:59;;;;;;;6.28;1.42;;;15.00;72.40;;;;;;10419363;28;20680;-72
2023/05/17 14:11:00;;;;;;;10.18;1.52;;;14.70;72.80;;;;;;10417784;28;20108;-72
2023/05/17 14:16:00;;;;;;;10.23;1.60;;;14.80;72.40;;;;;;10411699;28;20060;-72
2023/05/17 14:21:02;;;;;;;5.95;1.58;;;15.00;72.00;;;;;;10422420;28;20117;-71
2023/05/17 14:26:05;;;;;;;3.28;1.33;;;14.90;71.90;;;;;;10418266;28;20397;-72
2023/05/17 14:31:07;;;;;;;6.30;1.27;;;14.60;72.10;;;;;;10415401;28;20069;-70
2023/05/17 14:36:07;;;;;;;7.80;1.60;;;14.60;71.90;;;;;;10411100;28;20018;-67
2023/05/17 14:41:08;;;;;;;6.00;1.40;;;15.00;71.00;;;;;;10414752;28;20025;-74
2023/05/17 14:46:10;;;;;;;6.97;1.40;;;15.10;70.20;;;;;;10416269;28;20532;-72
2023/05/17 14:51:11;;;;;;;5.90;1.80;;;15.10;70.80;;;;;;10419429;28;20029;-72
2023/05/17 14:56:13;;;;;;;2.85;1.20;;;15.00;70.00;;;;;;10403506;28;20044;-72
2023/05/17 15:01:14;;;;;;;4.63;1.90;;;14.80;71.30;;;;;;10407395;28;20108;-72
2023/05/17 15:06:14;;;;;;;6.53;1.33;;;14.50;70.50;;;;;;10417899;28;20025;-73
2023/05/17 15:11:15;;;;;;;8.18;1.38;;;14.40;71.10;;;;;;10414819;28;20564;-72
2023/05/17 15:16:15;;;;;;;4.28;1.58;;;14.50;71.30;;;;;;10418208;28;20108;-71
2023/05/17 15:21:17;;;;;;;7.15;1.50;;;14.90;70.30;;;;;;10425914;28;20024;-74
2023/05/17 15:26:18;;;;;;;4.60;1.27;;;15.10;70.30;;;;;;10407624;28;20127;-73
2023/05/17 15:31:19;;;;;;;5.75;1.70;;;14.70;70.40;;;;;;10422845;28;20064;-70
2023/05/17 15:36:20;;;;;;;5.55;1.60;;;14.80;70.60;;;;;;10425252;28;20101;-75
2023/05/17 15:41:25;;;;;;;5.72;1.50;;;15.00;69.40;;;;;;10410135;28;20379;-74
2023/05/17 15:46:26;;;;;;;7.00;1.70;;;15.20;69.00;;;;;;10416322;28;20393;-74
2023/05/17 15:51:27;;;;;;;6.65;1.70;;;15.60;68.70;;;;;;10417017;28;20032;-73
2023/05/17 15:56:27;;;;;;;6.07;1.13;;;15.30;66.80;;;;;;10410808;28;20726;-74
2023/05/17 16:01:28;;;;;;;4.82;1.27;;;15.10;66.50;;;;;;10413662;28;20044;-73
2023/05/17 16:06:34;;;;;;;3.47;1.17;;;14.80;67.80;;;;;;10410621;28;20074;-74
2023/05/17 16:11:35;;;;;;;4.65;1.02;;;14.80;68.00;;;;;;10419636;28;20033;-73
2023/05/17 16:16:36;;;;;;;9.10;1.63;;;14.30;67.70;;;;;;10415059;28;20207;-72
2023/05/17 16:21:37;;;;;;;3.67;1.15;;;14.20;67.90;;;;;;10426147;28;20044;-72
2023/05/17 16:26:38;;;;;;;5.75;1.25;;;14.00;68.90;;;;;;10422909;28;20138;-73
2023/05/17 16:31:38;;;;;;;7.57;1.63;;;14.00;69.80;;;;;;10428414;28;20134;-72
2023/05/17 16:36:39;;;;;;;6.35;1.45;;;13.90;70.90;;;;;;10419217;28;20040;-71
2023/05/17 16:41:40;;;;;;;4.50;1.33;;;13.60;70.80;;;;;;10413318;28;20574;-68
2023/05/17 16:46:40;;;;;;;3.47;1.25;;;13.80;71.90;;;;;;10419198;28;20026;-69
2023/05/17 16:51:41;;;;;;;10.52;2.90;;;14.20;71.90;;;;;;10422783;28;20236;-69
2023/05/17 16:56:41;;;;;;;7.90;1.50;;;14.50;72.00;;;;;;10428296;28;20017;-69
2023/05/17 17:01:42;;;;;;;5.28;0.95;;;14.70;72.10;;;;;;10421811;28;20632;-69
2023/05/17 17:06:43;;;;;;;2.17;0.93;;;15.00;72.40;;;;;;10414714;28;20063;-69
2023/05/17 17:11:44;;;;;;;5.88;1.30;;;15.10;72.80;;;;;;10424374;28;20082;-69
2023/05/17 17:16:45;;;;;;;4.22;1.20;;;15.30;73.20;;;;;;10415960;28;20513;-69
2023/05/17 17:21:46;;;;;;;5.25;1.40;;;15.40;73.60;;;;;;10422124;28;20036;-70
2023/05/17 17:26:48;;;;;;;4.75;1.30;;;15.50;74.40;;;;;;10422451;28;20029;-70
2023/05/17 17:31:49;;;;;;;3.67;1.13;;;15.70;74.70;;;;;;10417029;28;20687;-70
2023/05/17 17:36:50;;;;;;;3.38;1.40;;;15.70;75.00;;;;;;10407991;28;20025;-69
2023/05/17 17:41:50;;;;;;;4.82;1.35;;;15.60;75.10;;;;;;10419126;28;20107;-69
2023/05/17 17:46:51;;;;;;;4.45;1.33;;;15.50;75.50;;;;;;10415322;28;20412;-68
2023/05/17 17:51:51;;;;;;;3.80;1.30;;;15.60;76.20;;;;;;10419284;28;20405;-67
2023/05/17 17:56:52;;;;;;;3.40;1.10;;;15.60;76.40;;;;;;10423354;28;20385;-68
2023/05/17 18:01:53;;;;;;;2.92;1.17;;;15.60;76.70;;;;;;10422960;28;20025;-68
2023/05/17 18:06:54;;;;;;;4.35;1.00;;;15.70;77.10;;;;;;10429109;28;20029;-69
2023/05/17 18:11:55;;;;;;;2.67;1.00;;;15.80;77.70;;;;;;10427844;28;20055;-68
2023/05/17 18:35:32;;;;;;;3.03;1.27;;;15.60;78.90;;;;;;10414057;28;20040;-69
2023/05/17 18:40:32;;;;;;;2.33;1.13;;;15.60;79.10;;;;;;10360780;28;20135;-68
2023/05/17 18:45:35;;;;;;;5.63;1.30;;;15.60;79.20;;;;;;10390646;28;20022;-68
2023/05/17 18:50:35;;;;;;;6.68;1.83;;;15.50;79.40;;;;;;10395663;28;20029;-68
2023/05/17 18:55:36;;;;;;;5.28;1.30;;;15.50;79.60;;;;;;10398770;28;20575;-68
2023/05/17 19:00:37;;;;;;;2.92;1.63;;;15.50;79.80;;;;;;10395813;28;20113;-68
2023/05/17 19:05:37;;;;;;;2.45;1.48;;;15.50;79.90;;;;;;10380347;28;20018;-68
2023/05/17 19:10:38;;;;;;;3.92;1.30;;;15.40;80.10;;;;;;10395783;28;20029;-68
2023/05/17 19:15:40;;;;;;;4.40;1.17;;;15.40;80.30;;;;;;10395194;28;20109;-68
2023/05/17 19:20:41;;;;;;;4.78;1.70;;;15.40;80.60;;;;;;10400194;28;20049;-68
2023/05/17 19:25:41;;;;;;;7.22;1.85;;;15.40;80.70;;;;;;10392575;28;20120;-68
2023/05/17 19:30:42;;;;;;;5.10;1.20;;;15.30;80.80;;;;;;10395788;28;20037;-68
2023/05/17 19:35:43;;;;;;;2.80;1.00;;;15.30;81.00;;;;;;10374682;28;20017;-68
2023/05/17 19:40:44;;;;;;;4.95;1.40;;;15.30;81.20;;;;;;10370590;28;20025;-68
2023/05/17 19:45:44;;;;;;;2.97;1.30;;;15.30;81.40;;;;;;10383901;28;20034;-68
2023/05/17 19:50:45;;;;;;;4.18;1.20;;;15.20;81.40;;;;;;10401343;28;20045;-67
2023/05/17 19:55:46;;;;;;;3.60;1.73;;;15.20;81.50;;;;;;10404074;28;20022;-67
2023/05/17 20:00:46;;;;;;;5.60;1.77;;;15.10;81.60;;;;;;10387356;28;20033;-67
2023/05/17 20:05:47;;;;;;;5.00;1.20;;;15.10;81.60;;;;;;10382692;28;20053;-67
2023/05/17 20:10:48;;;;;;;3.50;1.38;;;15.10;81.70;;;;;;10377787;28;20048;-67
2023/05/17 20:15:48;;;;;;;4.18;1.98;;;15.00;81.70;;;;;;10389027;28;20026;-67
2023/05/17 20:20:49;;;;;;;3.55;1.33;;;15.00;81.70;;;;;;10394940;28;20030;-67
2023/05/17 20:25:50;;;;;;;5.53;1.92;;;14.90;81.70;;;;;;10402067;28;20026;-67
2023/05/17 20:30:50;;;;;;;4.13;1.33;;;14.90;81.90;;;;;;10397479;28;20041;-67
2023/05/17 20:35:52;;;;;;;4.07;1.50;;;14.90;82.10;;;;;;10395454;28;20037;-67
2023/05/17 20:40:53;;;;;;;2.33;1.40;;;14.80;82.10;;;;;;10401726;28;20045;-67
2023/05/17 20:45:54;;;;;;;3.45;1.60;;;14.80;82.30;;;;;;10381076;28;20021;-67
2023/05/17 20:50:55;;;;;;;5.22;1.95;;;14.80;82.30;;;;;;10403215;28;20450;-67
2023/05/17 20:55:56;;;;;;;2.45;1.38;;;14.70;82.60;;;;;;10400778;28;20081;-67
2023/05/17 21:00:58;;;;;;;3.03;1.33;;;14.70;82.80;;;;;;10396581;28;20024;-67
2023/05/17 21:06:00;;;;;;;3.92;1.48;;;14.70;83.00;;;;;;10406790;28;20500;-67
2023/05/17 21:11:01;;;;;;;2.92;1.52;;;14.70;83.00;;;;;;10404991;28;20432;-67
2023/05/17 21:16:01;;;;;;;2.75;1.40;;;14.60;83.10;;;;;;10384806;28;20017;-68
2023/05/17 21:21:02;;;;;;;2.90;1.55;;;14.50;83.10;;;;;;10398229;28;20052;-68
2023/05/17 21:26:04;;;;;;;2.63;1.30;;;14.50;83.30;;;;;;10411032;28;20075;-67
2023/05/17 21:31:05;;;;;;;3.17;1.23;;;14.50;83.20;;;;;;10407589;28;20100;-67
2023/05/17 21:36:05;;;;;;;2.50;1.20;;;14.50;83.30;;;;;;10408603;28;20026;-67
2023/05/17 21:41:06;;;;;;;2.95;1.45;;;14.40;83.20;;;;;;10404439;28;20060;-67
2023/05/17 21:46:06;;;;;;;3.40;1.50;;;14.40;83.20;;;;;;10385961;28;20090;-67
2023/05/17 21:51:07;;;;;;;3.42;1.50;;;14.40;83.10;;;;;;10398837;28;20029;-67
2023/05/17 21:56:07;;;;;;;3.25;1.30;;;14.30;83.10;;;;;;10399655;28;20037;-67
2023/05/17 22:01:08;;;;;;;5.07;1.83;;;14.30;83.10;;;;;;10406131;28;20436;-67
2023/05/17 22:06:09;;;;;;;3.35;1.40;;;14.30;83.10;;;;;;10379983;28;20392;-67
2023/05/17 22:11:09;;;;;;;2.75;1.38;;;14.30;83.20;;;;;;10405213;28;20481;-67
2023/05/17 22:16:10;;;;;;;5.43;1.25;;;14.20;83.10;;;;;;10386746;28;20017;-67
2023/05/17 22:21:13;;;;;;;4.32;1.30;;;14.20;83.20;;;;;;10406407;28;20036;-67
2023/05/17 22:26:13;;;;;;;2.83;1.13;;;14.20;83.30;;;;;;10401756;28;20164;-67
2023/05/17 22:31:17;;;;;;;2.75;1.30;;;14.20;83.30;;;;;;10403606;28;20068;-67
2023/05/17 22:36:18;;;;;;;2.17;1.35;;;14.10;83.30;;;;;;10403704;28;20017;-67
2023/05/17 22:41:18;;;;;;;3.08;1.30;;;14.10;83.30;;;;;;10402953;28;20112;-67
2023/05/17 22:46:19;;;;;;;2.22;1.30;;;14.10;83.40;;;;;;10403704;28;20103;-67
2023/05/17 22:51:21;;;;;;;2.42;1.30;;;14.10;83.50;;;;;;10400847;28;20812;-67
2023/05/17 22:56:22;;;;;;;3.72;1.23;;;14.00;83.40;;;;;;10401257;28;20026;-67
2023/05/17 23:01:22;;;;;;;3.67;1.23;;;14.00;83.50;;;;;;10398398;28;20030;-67
2023/05/17 23:06:24;;;;;;;3.72;1.05;;;14.00;83.50;;;;;;10394694;28;20053;-67
2023/05/17 23:11:25;;;;;;;1.67;1.23;;;13.90;83.60;;;;;;10397835;28;20047;-67
2023/05/17 23:16:26;;;;;;;3.65;1.27;;;13.90;83.60;;;;;;10396220;28;20385;-67
2023/05/17 23:21:31;;;;;;;4.20;1.17;;;13.90;83.60;;;;;;10407833;28;20017;-67
2023/05/17 23:26:32;;;;;;;2.00;1.23;;;13.90;83.60;;;;;;10384440;28;20057;-67
2023/05/17 23:31:33;;;;;;;2.75;1.10;;;13.90;83.60;;;;;;10399261;28;20474;-67
2023/05/17 23:36:34;;;;;;;3.15;1.15;;;13.80;83.50;;;;;;10396312;28;20026;-67
2023/05/17 23:41:37;;;;;;;1.20;0.98;;;13.80;83.50;;;;;;10396133;28;20068;-67
2023/05/17 23:46:38;;;;;;;3.30;1.10;;;13.80;83.50;;;;;;10402186;28;20024;-67
2023/05/17 23:51:38;;;;;;;3.45;1.13;;;13.80;83.50;;;;;;10400688;28;20037;-67
2023/05/17 23:56:39;;;;;;;3.88;1.00;;;13.80;83.50;;;;;;10399431;28;20033;-67
